CheckWX is a tool to help pilots better visualize weather data.  It is not intended as a substitute for an official pre-flight weather briefing.

04:42:04 UTC

KMEB METAR
Laurinburg-Maxton Airport
Maxton, North Carolina, USA
Current

50 mins ago

KMEB 230352Z AUTO 17004KT 10SM CLR 24/22 A3004 RMK AO2 SLP170 T02440222
Observed
Aug-23 @ 03:52 UTC
Wind
  • 170° at 4 KTS
Visibility
10 SM
Flight Rules
VFR
Cloud Levels
  • Clear skies
Temperature
24°C / 75°F
Dewpoint
22°C / 72°F
Humidity
89%
Altimeter
30.04" Hg
Pressure
1017.32 hPa
Previous

2 hours ago

KMEB 230252Z AUTO 16004KT 10SM CLR 25/22 A3003 RMK AO2 SLP166 T02500222 50011
Observed
Aug-23 @ 02:52 UTC
Wind
  • 160° at 4 KTS
Visibility
10 SM
Flight Rules
VFR
Cloud Levels
  • Clear skies
Temperature
25°C / 77°F
Dewpoint
22°C / 72°F
Humidity
83%
Altimeter
30.03" Hg
Pressure
1016.92 hPa
Previous

3 hours ago

KMEB 230152Z AUTO 16006KT 10SM CLR 26/23 A3004 RMK AO2 SLP170 T02610228
Observed
Aug-23 @ 01:52 UTC
Wind
  • 160° at 6 KTS
Visibility
10 SM
Flight Rules
VFR
Cloud Levels
  • Clear skies
Temperature
26°C / 79°F
Dewpoint
23°C / 73°F
Humidity
84%
Altimeter
30.04" Hg
Pressure
1017.32 hPa